Time;durP1;ratioP1;P1;durP2;ratioP2;P2;SDS_P1;SDS_P2;PMS_P1;PMS_P2;Temp;Humidity;BMP_temperature;BMP_pressure;BME280_temperature;BME280_humidity;BME280_pressure;Samples;Min_cycle;Max_cycle;Signal;HPM_P1;HPM_P2
2021/10/30 00:03:02;;;;;;;5.75;3.83;;;23.40;61.00;;;;;;32009242;27;20090;-43
2021/10/30 00:18:05;;;;;;;7.25;3.42;;;23.30;61.10;;;;;;32016507;27;20498;-43
2021/10/30 00:33:07;;;;;;;29.77;3.80;;;23.20;60.90;;;;;;32034106;27;20075;-44
2021/10/30 00:48:09;;;;;;;5.68;3.70;;;23.20;61.10;;;;;;32032454;27;20039;-42
2021/10/30 01:03:13;;;;;;;4.60;3.47;;;23.10;61.20;;;;;;32030353;27;20095;-49
2021/10/30 01:18:15;;;;;;;5.20;3.03;;;23.00;61.10;;;;;;32028728;27;20043;-48
2021/10/30 01:33:17;;;;;;;5.40;3.20;;;23.00;61.40;;;;;;32026862;27;20043;-50
2021/10/30 01:48:19;;;;;;;3.85;2.65;;;22.80;61.90;;;;;;32024987;27;20050;-52
2021/10/30 02:03:23;;;;;;;6.93;2.75;;;22.80;61.80;;;;;;32023169;27;20063;-53
2021/10/30 02:18:25;;;;;;;3.22;2.80;;;22.70;61.90;;;;;;32021313;27;20088;-52
2021/10/30 02:33:27;;;;;;;4.95;2.88;;;22.70;61.70;;;;;;32019212;27;20043;-50
2021/10/30 02:48:29;;;;;;;6.80;2.40;;;23.00;61.10;;;;;;32016583;27;20064;-49
2021/10/30 03:03:31;;;;;;;9.00;2.38;;;23.30;60.70;;;;;;32015305;27;20047;-47
2021/10/30 03:18:33;;;;;;;4.97;2.10;;;23.30;60.80;;;;;;32013406;27;20064;-49
2021/10/30 03:33:35;;;;;;;3.35;2.17;;;23.20;61.00;;;;;;32012305;27;20531;-46
2021/10/30 03:48:37;;;;;;;2.22;2.03;;;23.10;61.30;;;;;;32010706;27;20043;-46
2021/10/30 04:03:39;;;;;;;3.85;2.60;;;23.10;61.20;;;;;;32009589;27;20155;-49
2021/10/30 04:18:43;;;;;;;4.65;3.08;;;23.10;61.10;;;;;;32008336;27;20092;-41
2021/10/30 04:33:45;;;;;;;19.73;13.82;;;23.00;61.10;;;;;;31996242;27;20046;-52
2021/10/30 04:48:48;;;;;;;35.65;13.82;;;22.50;53.30;;;;;;31995550;28;20114;-51
2021/10/30 05:03:50;;;;;;;23.05;14.18;;;22.90;57.10;;;;;;32001251;27;20096;-51
2021/10/30 05:18:52;;;;;;;21.85;13.05;;;23.00;56.00;;;;;;32025082;27;20050;-55
2021/10/30 05:48:34;;;;;;;19.58;11.88;;;23.30;55.80;;;;;;31584601;28;20441;-53
2021/10/30 06:03:36;;;;;;;21.13;9.77;;;23.40;56.50;;;;;;31601719;28;20047;-54
2021/10/30 06:18:38;;;;;;;27.45;10.25;;;23.40;56.40;;;;;;31600132;28;20121;-58
2021/10/30 06:33:41;;;;;;;26.20;10.02;;;23.30;57.20;;;;;;31239031;28;10000289;-57
2021/10/30 06:48:43;;;;;;;210.52;29.30;;;23.30;57.70;;;;;;31558668;28;20092;-52
2021/10/30 07:03:45;;;;;;;194.05;32.13;;;23.00;54.60;;;;;;31510456;28;20057;-56
2021/10/30 07:18:47;;;;;;;99.78;23.60;;;23.20;56.70;;;;;;31514976;28;20469;-52
2021/10/30 07:33:49;;;;;;;62.00;18.83;;;23.10;55.60;;;;;;31488966;28;20224;-38
2021/10/30 07:48:54;;;;;;;48.22;19.00;;;22.80;54.80;;;;;;31385141;28;20042;-36
2021/10/30 08:03:56;;;;;;;58.55;17.95;;;22.70;51.40;;;;;;31370395;28;20071;-37
2021/10/30 08:18:59;;;;;;;33.80;17.23;;;23.00;55.70;;;;;;31375479;28;20042;-38
2021/10/30 08:34:01;;;;;;;36.42;14.57;;;23.30;55.60;;;;;;31372780;28;20083;-46
2021/10/30 08:49:05;;;;;;;27.55;14.55;;;23.50;55.90;;;;;;31373565;28;20046;-42
2021/10/30 09:04:11;;;;;;;37.08;16.70;;;23.30;55.70;;;;;;31416671;28;20124;-43
2021/10/30 09:19:29;;;;;;;43.40;15.27;;;23.40;52.70;;;;;;31378074;28;20128;-48
2021/10/30 09:34:31;;;;;;;41.55;18.38;;;23.00;54.70;;;;;;31362494;28;20050;-37
2021/10/30 09:49:37;;;;;;;40.13;18.65;;;23.00;55.00;;;;;;31371008;28;20053;-43
2021/10/30 10:04:40;;;;;;;46.42;18.35;;;23.00;55.70;;;;;;31370189;28;20041;-40
2021/10/30 10:19:43;;;;;;;30.52;16.35;;;22.90;56.00;;;;;;31369256;28;20050;-39
2021/10/30 10:34:46;;;;;;;29.48;14.75;;;23.00;55.90;;;;;;31390372;28;20097;-45
2021/10/30 10:50:06;;;;;;;35.17;14.43;;;23.30;55.70;;;;;;31390068;28;20065;-38
2021/10/30 11:05:09;;;;;;;18.30;11.30;;;23.40;55.80;;;;;;31388184;28;20120;-40
2021/10/30 11:20:15;;;;;;;24.77;11.45;;;23.30;55.80;;;;;;31030368;28;10000418;-41
2021/10/30 11:35:17;;;;;;;19.38;11.48;;;23.20;56.10;;;;;;31371499;28;20062;-40
2021/10/30 11:50:19;;;;;;;19.05;10.20;;;23.20;56.20;;;;;;31370704;28;20042;-46
2021/10/30 12:05:21;;;;;;;18.40;10.20;;;23.10;56.50;;;;;;31373705;28;20085;-39
2021/10/30 12:20:24;;;;;;;22.05;10.35;;;23.00;57.00;;;;;;31379515;28;20037;-39
2021/10/30 12:35:32;;;;;;;18.27;9.38;;;22.90;57.10;;;;;;31377376;28;20061;-39
2021/10/30 12:50:34;;;;;;;22.83;9.88;;;23.10;57.00;;;;;;31375711;28;20065;-45
2021/10/30 13:05:38;;;;;;;19.67;9.30;;;23.40;56.50;;;;;;31374478;28;20049;-45
2021/10/30 13:20:43;;;;;;;17.27;8.38;;;23.40;56.40;;;;;;31372736;28;20065;-41
2021/10/30 13:35:45;;;;;;;12.60;7.78;;;23.40;56.70;;;;;;31371529;28;20049;-41
2021/10/30 13:50:47;;;;;;;13.52;8.00;;;23.30;56.70;;;;;;31370671;28;20125;-45
2021/10/30 14:05:49;;;;;;;12.52;6.88;;;23.20;56.90;;;;;;31385147;28;20056;-41
2021/10/30 14:20:51;;;;;;;13.20;7.25;;;23.10;57.00;;;;;;31392830;28;20049;-40
2021/10/30 14:35:55;;;;;;;11.32;6.75;;;23.00;57.20;;;;;;31393946;28;20068;-41
2021/10/30 14:50:58;;;;;;;12.85;6.65;;;22.90;57.30;;;;;;31412296;28;20045;-38
2021/10/30 15:06:00;;;;;;;13.00;6.53;;;23.20;56.80;;;;;;31488713;28;20164;-51
2021/10/30 15:21:04;;;;;;;15.13;5.63;;;23.40;56.60;;;;;;31395431;28;20037;-45
2021/10/30 15:36:09;;;;;;;11.40;6.35;;;23.40;56.70;;;;;;31410018;28;20053;-49
2021/10/30 15:51:12;;;;;;;23.83;6.78;;;23.40;58.00;;;;;;31377573;28;20072;-45
2021/10/30 16:06:18;;;;;;;20.88;7.70;;;23.40;57.90;;;;;;31382325;28;20037;-48
2021/10/30 16:21:23;;;;;;;17.27;7.20;;;23.20;58.10;;;;;;31377209;28;20065;-43
2021/10/30 16:36:25;;;;;;;19.02;7.22;;;23.00;58.00;;;;;;31380871;28;20069;-46
2021/10/30 16:51:28;;;;;;;16.45;6.70;;;23.00;57.90;;;;;;31378663;28;20080;-45
2021/10/30 17:06:30;;;;;;;16.67;6.90;;;23.00;57.60;;;;;;31378189;28;20132;-43
2021/10/30 17:21:32;;;;;;;21.77;7.25;;;22.90;58.20;;;;;;31376671;28;20124;-45
2021/10/30 17:36:34;;;;;;;14.40;7.03;;;23.00;57.90;;;;;;31375214;28;20057;-50
2021/10/30 17:51:36;;;;;;;16.35;6.93;;;23.40;57.20;;;;;;31025201;28;10000039;-49
2021/10/30 18:06:38;;;;;;;13.10;7.45;;;23.40;56.90;;;;;;31373595;28;20100;-45
2021/10/30 18:21:40;;;;;;;18.77;10.48;;;23.40;56.90;;;;;;31372095;28;20069;-51
2021/10/30 18:36:44;;;;;;;20.83;9.98;;;23.30;56.50;;;;;;31372166;28;20052;-47
2021/10/30 18:51:46;;;;;;;18.88;10.73;;;23.20;56.60;;;;;;31386790;28;20049;-51
2021/10/30 19:06:51;;;;;;;18.17;10.43;;;23.00;56.70;;;;;;31392446;28;20056;-48
2021/10/30 19:21:55;;;;;;;20.85;10.45;;;22.90;56.90;;;;;;31390461;28;20052;-43
2021/10/30 19:36:57;;;;;;;12.95;8.43;;;22.90;56.70;;;;;;31388831;28;20073;-43
2021/10/30 19:52:00;;;;;;;15.50;8.82;;;23.30;56.30;;;;;;31387137;28;20038;-43
2021/10/30 20:07:04;;;;;;;12.40;7.72;;;23.40;56.00;;;;;;31385276;28;20060;-43
2021/10/30 20:22:07;;;;;;;12.02;7.57;;;23.30;56.10;;;;;;31383803;28;20068;-43
2021/10/30 20:37:10;;;;;;;12.20;7.47;;;23.30;55.50;;;;;;31381917;28;20042;-42
2021/10/30 20:52:12;;;;;;;12.55;7.22;;;23.20;55.80;;;;;;31394713;28;20049;-43
2021/10/30 21:07:14;;;;;;;20.40;7.65;;;23.00;55.20;;;;;;31464799;28;20417;-44
2021/10/30 21:22:16;;;;;;;17.13;6.80;;;22.90;55.60;;;;;;31373284;28;20048;-44
2021/10/30 21:37:25;;;;;;;20.25;13.48;;;22.90;52.90;;;;;;31372050;28;20053;-47
2021/10/30 21:52:27;;;;;;;15.07;10.70;;;22.80;51.80;;;;;;31371339;28;20080;-45
2021/10/30 22:07:29;;;;;;;12.50;9.50;;;22.70;50.80;;;;;;31419793;28;20052;-45
2021/10/30 22:22:31;;;;;;;27.65;14.45;;;22.70;51.10;;;;;;31396407;28;20106;-46
2021/10/30 22:37:33;;;;;;;21.00;14.68;;;22.50;51.70;;;;;;31395738;28;20131;-46
2021/10/30 22:52:36;;;;;;;22.55;13.80;;;23.20;52.10;;;;;;31386900;28;20104;-47
2021/10/30 23:07:39;;;;;;;18.02;12.93;;;23.60;53.00;;;;;;31391148;28;20056;-46
2021/10/30 23:22:41;;;;;;;20.48;12.30;;;23.50;53.20;;;;;;31393610;28;20051;-46
2021/10/30 23:37:43;;;;;;;16.42;11.07;;;23.40;53.80;;;;;;31391462;28;20105;-42
2021/10/30 23:52:45;;;;;;;14.80;10.27;;;23.40;53.90;;;;;;31390813;28;20045;-47
